Time;durP1;ratioP1;P1;durP2;ratioP2;P2;SDS_P1;SDS_P2;PMS_P1;PMS_P2;Temp;Humidity;BMP_temperature;BMP_pressure;BME280_temperature;BME280_humidity;BME280_pressure;Samples;Min_cycle;Max_cycle;Signal;HPM_P1;HPM_P2
2021/07/14 00:00:00;;;;;;;6.22;5.22;;;23.10;74.00;;;;;;5051253;28;20432;-51
2021/07/14 00:02:25;;;;;;;6.10;5.07;;;23.10;73.90;;;;;;5052050;28;20041;-46
2021/07/14 00:04:51;;;;;;;5.18;4.50;;;23.10;73.90;;;;;;5051849;28;20121;-50
2021/07/14 00:07:17;;;;;;;7.10;4.40;;;23.10;73.90;;;;;;5051252;28;20503;-49
2021/07/14 00:09:43;;;;;;;5.72;5.10;;;23.10;73.90;;;;;;5051253;28;20127;-47
2021/07/14 00:12:11;;;;;;;6.28;4.80;;;23.10;73.90;;;;;;5051615;28;20045;-56
2021/07/14 00:22:28;;;;;;;6.65;5.30;;;23.10;73.90;;;;;;5051657;28;20056;-52
2021/07/14 00:24:54;;;;;;;6.80;5.22;;;23.10;73.90;;;;;;5051620;28;20041;-49
2021/07/14 00:27:19;;;;;;;6.22;5.07;;;23.10;73.90;;;;;;5050197;28;20053;-46
2021/07/14 00:30:08;;;;;;;6.43;5.30;;;23.10;73.90;;;;;;5050711;28;20111;-47
2021/07/14 00:32:34;;;;;;;5.60;4.63;;;23.10;73.90;;;;;;5049648;28;20053;-47
2021/07/14 00:34:59;;;;;;;7.35;4.95;;;23.10;74.60;;;;;;5054304;28;20076;-44
2021/07/14 00:37:25;;;;;;;5.50;4.88;;;23.00;73.80;;;;;;5055329;28;20053;-49
2021/07/14 00:39:55;;;;;;;8.32;5.05;;;23.10;73.90;;;;;;5055454;28;20500;-46
2021/07/14 00:42:23;;;;;;;5.82;5.05;;;23.00;73.80;;;;;;5054025;28;20120;-47
2021/07/14 00:44:48;;;;;;;8.57;5.63;;;23.00;73.80;;;;;;5054843;28;20489;-47
2021/07/14 00:47:20;;;;;;;6.63;5.63;;;23.10;73.80;;;;;;5055070;28;20075;-47
2021/07/14 00:49:46;;;;;;;5.07;4.53;;;23.10;73.90;;;;;;5055025;28;20044;-47
2021/07/14 00:52:12;;;;;;;5.82;4.90;;;23.10;73.90;;;;;;5055160;28;20118;-50
2021/07/14 00:54:38;;;;;;;5.65;5.00;;;23.10;73.90;;;;;;5054426;28;20041;-46
2021/07/14 00:57:03;;;;;;;6.55;5.63;;;23.10;73.80;;;;;;5053489;28;20048;-43
2021/07/14 00:59:29;;;;;;;6.13;5.22;;;23.10;73.80;;;;;;5054087;28;20124;-50
2021/07/14 01:01:55;;;;;;;7.75;5.68;;;23.10;73.90;;;;;;5054820;28;20118;-47
2021/07/14 01:04:26;;;;;;;6.07;4.82;;;23.10;73.80;;;;;;5054247;28;20033;-47
2021/07/14 01:07:00;;;;;;;7.38;5.60;;;23.10;73.90;;;;;;5053966;28;20400;-49
2021/07/14 01:09:56;;;;;;;8.32;5.65;;;23.00;73.80;;;;;;5055101;28;20072;-49
2021/07/14 01:12:52;;;;;;;5.75;4.82;;;23.10;73.80;;;;;;5053662;28;20498;-48
2021/07/14 01:15:20;;;;;;;6.43;5.03;;;23.00;73.70;;;;;;5054150;28;20037;-50
2021/07/14 01:17:52;;;;;;;7.05;5.35;;;23.00;73.80;;;;;;5054178;28;20045;-47
2021/07/14 01:20:29;;;;;;;5.72;4.70;;;23.00;73.80;;;;;;5054230;28;20489;-48
2021/07/14 01:23:09;;;;;;;8.00;5.55;;;23.10;73.80;;;;;;5054418;28;20049;-49
2021/07/14 01:25:45;;;;;;;6.55;5.10;;;23.00;73.70;;;;;;5053750;28;20088;-53
2021/07/14 01:28:13;;;;;;;7.30;5.18;;;23.00;73.80;;;;;;5053228;28;20052;-45
2021/07/14 01:30:40;;;;;;;7.32;5.20;;;23.00;73.80;;;;;;5053936;28;20049;-46
2021/07/14 01:33:09;;;;;;;7.47;5.28;;;23.00;73.80;;;;;;5054333;28;20091;-48
2021/07/14 01:35:41;;;;;;;7.20;5.32;;;23.00;73.80;;;;;;5053381;28;20053;-45
2021/07/14 01:38:11;;;;;;;7.22;5.07;;;23.00;73.80;;;;;;5053713;28;20052;-46
2021/07/14 01:40:39;;;;;;;7.15;5.03;;;23.00;73.80;;;;;;5054090;28;20535;-49
2021/07/14 01:43:05;;;;;;;6.60;5.20;;;23.00;73.80;;;;;;5052941;28;20046;-51
2021/07/14 01:45:34;;;;;;;5.82;4.78;;;23.00;73.80;;;;;;5053666;28;20053;-49
2021/07/14 01:48:02;;;;;;;7.50;5.32;;;23.00;73.80;;;;;;5053764;28;20052;-49
2021/07/14 01:50:30;;;;;;;8.07;5.72;;;23.00;73.80;;;;;;5053134;28;20553;-48
2021/07/14 01:52:58;;;;;;;7.47;5.00;;;23.00;73.80;;;;;;5053701;28;20041;-49
2021/07/14 01:55:24;;;;;;;8.15;5.70;;;23.00;73.70;;;;;;5052620;28;20044;-46
2021/07/14 01:57:55;;;;;;;5.25;4.55;;;23.00;73.70;;;;;;5052222;28;20127;-45
2021/07/14 02:00:21;;;;;;;5.13;4.57;;;23.00;73.80;;;;;;5052388;28;20073;-50
2021/07/14 02:02:53;;;;;;;6.63;4.80;;;23.00;73.70;;;;;;5053430;28;20045;-46
2021/07/14 02:05:20;;;;;;;5.90;4.72;;;23.00;73.70;;;;;;5052542;28;20379;-50
2021/07/14 02:07:46;;;;;;;6.75;4.78;;;23.00;73.70;;;;;;5053409;28;20069;-48
2021/07/14 02:10:13;;;;;;;6.03;4.85;;;23.00;73.70;;;;;;5053488;28;20075;-51
2021/07/14 02:12:43;;;;;;;6.13;5.20;;;23.00;73.70;;;;;;5052984;28;20146;-48
2021/07/14 02:15:11;;;;;;;4.80;4.30;;;23.00;73.70;;;;;;5053587;28;20079;-51
2021/07/14 02:17:43;;;;;;;5.55;4.97;;;23.00;73.80;;;;;;5052584;28;20572;-50
2021/07/14 02:20:15;;;;;;;6.97;4.97;;;23.00;74.40;;;;;;5052689;28;20493;-48
2021/07/14 02:22:41;;;;;;;5.68;4.68;;;23.00;73.70;;;;;;5052224;28;20037;-49
2021/07/14 02:25:08;;;;;;;6.35;4.93;;;23.00;73.70;;;;;;5053192;28;20539;-52
2021/07/14 02:27:35;;;;;;;5.97;4.97;;;23.00;73.70;;;;;;5045171;28;20457;-48
2021/07/14 02:30:01;;;;;;;5.82;4.63;;;23.00;73.70;;;;;;5053220;28;20041;-51
2021/07/14 02:32:26;;;;;;;6.15;4.47;;;23.00;73.70;;;;;;5052441;28;20048;-48
2021/07/14 02:34:55;;;;;;;4.60;4.00;;;23.00;73.70;;;;;;5051980;28;20045;-45
2021/07/14 02:37:52;;;;;;;5.18;4.40;;;23.00;73.70;;;;;;5052564;28;20049;-48
2021/07/14 02:40:34;;;;;;;5.85;4.70;;;23.00;73.70;;;;;;5053102;28;20491;-49
2021/07/14 02:43:03;;;;;;;5.13;4.60;;;23.00;73.70;;;;;;5052804;28;20083;-48
2021/07/14 02:45:32;;;;;;;6.43;4.88;;;22.90;73.70;;;;;;5052042;28;20055;-52
2021/07/14 02:48:00;;;;;;;4.97;4.47;;;23.00;73.70;;;;;;5052241;28;20061;-46
2021/07/14 02:50:29;;;;;;;6.18;4.80;;;23.00;73.70;;;;;;5052652;28;20041;-53
2021/07/14 02:53:00;;;;;;;5.45;4.70;;;23.00;73.70;;;;;;5052816;28;20091;-51
2021/07/14 02:55:31;;;;;;;5.95;5.10;;;22.90;73.70;;;;;;5051243;28;20167;-47
2021/07/14 02:58:00;;;;;;;5.47;4.85;;;23.00;73.70;;;;;;5052546;28;20136;-48
2021/07/14 03:00:28;;;;;;;6.00;4.85;;;23.00;73.70;;;;;;5052768;28;20063;-51
2021/07/14 03:02:55;;;;;;;8.90;5.40;;;23.00;73.70;;;;;;5051442;28;20110;-50
2021/07/14 03:05:21;;;;;;;6.28;4.55;;;22.90;73.60;;;;;;5052424;28;20053;-50
2021/07/14 03:07:48;;;;;;;7.90;5.53;;;22.90;73.60;;;;;;5052421;28;20040;-45
2021/07/14 03:10:17;;;;;;;6.00;4.93;;;23.00;73.70;;;;;;5051782;28;20044;-46
2021/07/14 03:12:45;;;;;;;6.32;5.15;;;23.00;73.70;;;;;;5052505;28;20059;-49
2021/07/14 03:15:12;;;;;;;5.50;4.97;;;23.00;73.70;;;;;;5052584;28;20075;-54
2021/07/14 03:17:40;;;;;;;5.32;4.80;;;22.90;73.60;;;;;;5050971;28;20049;-48
2021/07/14 03:20:11;;;;;;;5.30;4.70;;;23.00;73.70;;;;;;5032143;28;20102;-45
2021/07/14 03:22:42;;;;;;;5.70;5.10;;;22.90;73.70;;;;;;5036534;28;20044;-47
2021/07/14 03:25:10;;;;;;;5.28;4.78;;;22.90;73.60;;;;;;5051202;28;20452;-51
2021/07/14 03:27:36;;;;;;;4.68;4.15;;;22.90;73.60;;;;;;5051289;28;20052;-50
2021/07/14 03:30:02;;;;;;;7.20;5.55;;;23.00;73.70;;;;;;5050960;28;20068;-49
2021/07/14 03:32:28;;;;;;;5.32;4.63;;;22.90;73.70;;;;;;5051005;28;20052;-46
2021/07/14 03:34:55;;;;;;;5.55;4.93;;;22.90;73.60;;;;;;5051186;28;20536;-48
2021/07/14 03:37:21;;;;;;;4.88;4.30;;;22.90;73.60;;;;;;5050227;28;20053;-49
2021/07/14 03:39:47;;;;;;;5.65;4.95;;;22.80;73.60;;;;;;5051203;28;20041;-46
2021/07/14 03:42:16;;;;;;;5.55;4.70;;;22.90;73.70;;;;;;5050410;28;20061;-49
2021/07/14 03:44:45;;;;;;;4.57;3.95;;;22.90;73.60;;;;;;5048427;28;20053;-49
2021/07/14 03:47:16;;;;;;;5.85;4.55;;;22.90;73.60;;;;;;5050006;28;20046;-43
2021/07/14 03:49:43;;;;;;;5.78;4.70;;;22.90;73.60;;;;;;5051963;28;20063;-45
2021/07/14 03:52:10;;;;;;;5.38;4.55;;;22.90;73.60;;;;;;5050906;28;20052;-47
2021/07/14 03:54:38;;;;;;;5.03;4.40;;;22.90;73.60;;;;;;5040063;28;20048;-42
2021/07/14 03:57:05;;;;;;;5.32;4.68;;;22.90;73.60;;;;;;5045770;28;20045;-55
2021/07/14 03:59:33;;;;;;;5.15;4.65;;;22.90;73.60;;;;;;5051486;28;20047;-50
2021/07/14 04:02:01;;;;;;;6.38;5.30;;;22.90;73.70;;;;;;5050864;28;20486;-41
2021/07/14 04:04:27;;;;;;;4.78;4.30;;;22.90;73.60;;;;;;5052047;28;20048;-48
2021/07/14 04:07:01;;;;;;;5.13;4.63;;;22.90;73.60;;;;;;5052597;28;20048;-45
2021/07/14 04:09:27;;;;;;;4.55;4.15;;;22.90;73.60;;;;;;5035572;28;20076;-48
2021/07/14 04:11:58;;;;;;;4.63;4.15;;;22.90;73.60;;;;;;5047151;28;20045;-49
2021/07/14 04:14:27;;;;;;;4.20;3.80;;;22.90;73.60;;;;;;5055253;28;20049;-48
2021/07/14 04:16:56;;;;;;;5.13;4.50;;;22.90;73.60;;;;;;5054743;28;20501;-46
2021/07/14 04:19:22;;;;;;;5.05;4.60;;;22.90;73.60;;;;;;5055931;28;20112;-43
2021/07/14 04:21:48;;;;;;;5.13;4.63;;;22.90;73.60;;;;;;5054965;28;20445;-46
2021/07/14 04:24:15;;;;;;;5.38;4.57;;;22.90;73.60;;;;;;5054434;28;20049;-44
2021/07/14 04:26:41;;;;;;;6.15;3.83;;;22.90;73.60;;;;;;5054982;28;20041;-46
2021/07/14 04:29:07;;;;;;;4.80;4.30;;;22.90;73.70;;;;;;5054961;28;20148;-47
2021/07/14 04:31:35;;;;;;;5.88;4.57;;;22.90;73.60;;;;;;5054852;28;20481;-48
2021/07/14 04:34:02;;;;;;;4.70;4.20;;;22.90;73.60;;;;;;5055401;28;20056;-49
2021/07/14 04:36:28;;;;;;;4.57;4.18;;;22.90;73.60;;;;;;5055391;28;20056;-46
2021/07/14 04:38:54;;;;;;;4.68;4.28;;;22.90;73.60;;;;;;5037827;28;20060;-46
2021/07/14 04:41:20;;;;;;;4.53;4.13;;;22.90;73.60;;;;;;5034962;28;20494;-45
2021/07/14 04:43:46;;;;;;;4.40;4.00;;;22.90;73.70;;;;;;5052113;28;20191;-45
2021/07/14 04:46:12;;;;;;;4.25;3.47;;;22.90;73.70;;;;;;5055436;28;20541;-49
2021/07/14 04:48:38;;;;;;;3.92;3.53;;;22.90;73.70;;;;;;5054423;28;20095;-49
2021/07/14 04:51:04;;;;;;;4.43;4.03;;;22.90;73.60;;;;;;5055615;28;20444;-49
2021/07/14 04:53:29;;;;;;;4.20;3.65;;;22.90;73.60;;;;;;5054130;28;20091;-48
2021/07/14 04:55:55;;;;;;;4.35;3.42;;;22.90;73.60;;;;;;5054467;28;20059;-47
2021/07/14 04:58:21;;;;;;;4.18;3.78;;;22.90;73.60;;;;;;5050266;28;20098;-45
2021/07/14 05:00:46;;;;;;;5.03;4.38;;;22.90;73.70;;;;;;5054837;28;20051;-49
2021/07/14 05:03:12;;;;;;;4.53;4.00;;;22.90;73.60;;;;;;5054173;28;20485;-46
2021/07/14 05:05:38;;;;;;;4.18;3.78;;;22.90;73.60;;;;;;5053093;28;20800;-53
2021/07/14 05:08:04;;;;;;;4.13;3.72;;;22.90;73.60;;;;;;5053938;28;20041;-48
2021/07/14 05:10:31;;;;;;;4.20;3.80;;;22.90;73.60;;;;;;5054094;28;20052;-48
2021/07/14 05:12:57;;;;;;;5.35;3.90;;;22.90;73.60;;;;;;5054384;28;20041;-45
2021/07/14 05:15:24;;;;;;;4.72;3.83;;;22.90;73.60;;;;;;5054225;28;20387;-48
2021/07/14 05:17:49;;;;;;;4.40;4.00;;;22.90;73.60;;;;;;5053391;28;20079;-50
2021/07/14 05:20:17;;;;;;;4.20;3.80;;;22.90;73.60;;;;;;5054370;28;20489;-52
2021/07/14 05:22:43;;;;;;;3.95;3.60;;;22.90;73.60;;;;;;5054532;28;20501;-50
2021/07/14 05:25:10;;;;;;;3.63;3.30;;;22.90;73.70;;;;;;5053087;28;20048;-51
2021/07/14 05:27:36;;;;;;;4.43;3.85;;;22.90;73.60;;;;;;5053932;28;20044;-51
2021/07/14 05:30:07;;;;;;;3.90;3.58;;;22.90;73.60;;;;;;5046289;28;20405;-45
2021/07/14 05:32:34;;;;;;;3.55;3.25;;;22.90;73.60;;;;;;5053900;28;20057;-50
2021/07/14 05:35:02;;;;;;;4.32;3.85;;;22.90;73.60;;;;;;5054126;28;20045;-48
2021/07/14 05:37:28;;;;;;;4.00;3.60;;;22.90;73.60;;;;;;5053164;28;20131;-47
2021/07/14 05:39:53;;;;;;;4.57;3.80;;;22.90;73.60;;;;;;5053256;28;20140;-46
2021/07/14 05:42:19;;;;;;;4.65;3.53;;;22.90;73.60;;;;;;5053172;28;20490;-48
2021/07/14 05:44:45;;;;;;;4.30;3.90;;;22.90;73.60;;;;;;5053514;28;20110;-47
2021/07/14 05:47:11;;;;;;;4.32;3.55;;;22.90;73.60;;;;;;5053305;28;20458;-48
2021/07/14 05:49:37;;;;;;;4.15;3.72;;;22.90;73.60;;;;;;5050473;28;20075;-50
2021/07/14 05:52:03;;;;;;;4.22;3.75;;;22.90;73.60;;;;;;5048559;28;20067;-54
2021/07/14 05:54:29;;;;;;;4.03;3.63;;;22.90;73.60;;;;;;5053046;28;20215;-51
2021/07/14 05:56:54;;;;;;;4.05;3.65;;;22.90;73.60;;;;;;5052840;28;20141;-49
2021/07/14 05:59:20;;;;;;;3.85;3.35;;;22.90;73.60;;;;;;5053133;28;20049;-48
2021/07/14 06:01:46;;;;;;;3.40;3.10;;;22.90;73.60;;;;;;5052854;28;20489;-52
2021/07/14 06:04:11;;;;;;;4.47;3.20;;;22.90;73.50;;;;;;5054240;28;20068;-53
2021/07/14 06:06:37;;;;;;;3.95;3.58;;;22.90;73.60;;;;;;5053084;28;20112;-49
2021/07/14 06:09:03;;;;;;;4.15;3.72;;;22.90;73.60;;;;;;5052660;28;20041;-48
2021/07/14 06:11:29;;;;;;;3.63;3.33;;;22.90;73.60;;;;;;5053200;28;20051;-53
2021/07/14 06:13:55;;;;;;;4.13;3.72;;;22.90;73.60;;;;;;5053394;28;20040;-46
2021/07/14 06:16:21;;;;;;;3.70;3.40;;;22.90;73.50;;;;;;5051855;28;20474;-53
2021/07/14 06:18:46;;;;;;;3.60;3.10;;;22.90;73.60;;;;;;5052772;28;20041;-48
2021/07/14 06:21:12;;;;;;;3.88;3.42;;;22.90;73.50;;;;;;5053820;28;20434;-49
2021/07/14 06:23:38;;;;;;;4.22;3.45;;;22.90;73.60;;;;;;5052947;28;20393;-48
2021/07/14 06:26:04;;;;;;;3.55;3.25;;;22.90;73.60;;;;;;5052113;28;20124;-55
2021/07/14 06:28:30;;;;;;;3.83;3.50;;;22.90;73.60;;;;;;5050130;28;20094;-54
2021/07/14 06:30:56;;;;;;;3.83;3.28;;;22.90;73.60;;;;;;5051163;28;20049;-50
2021/07/14 06:33:22;;;;;;;3.30;3.00;;;22.90;73.60;;;;;;5051151;28;20565;-44
2021/07/14 06:35:50;;;;;;;3.33;3.03;;;22.90;73.50;;;;;;5051179;28;20056;-50
2021/07/14 06:38:16;;;;;;;3.53;3.22;;;22.90;73.60;;;;;;5049838;28;20128;-50
2021/07/14 06:40:42;;;;;;;3.97;3.60;;;22.90;73.60;;;;;;5049718;28;20127;-45
2021/07/14 06:43:14;;;;;;;4.65;3.58;;;22.90;73.60;;;;;;5051606;28;20071;-46
2021/07/14 06:45:40;;;;;;;3.90;3.22;;;22.90;73.60;;;;;;5051070;28;20102;-49
2021/07/14 06:48:06;;;;;;;3.53;3.22;;;22.90;73.60;;;;;;5052458;28;20119;-53
2021/07/14 06:50:31;;;;;;;3.22;2.92;;;22.90;73.60;;;;;;5052591;28;20128;-46
2021/07/14 06:52:59;;;;;;;4.00;3.60;;;22.90;73.50;;;;;;5052231;28;20048;-48
2021/07/14 06:55:24;;;;;;;3.35;3.05;;;22.90;73.60;;;;;;5052637;28;20049;-55
2021/07/14 06:57:50;;;;;;;3.30;3.00;;;22.90;73.50;;;;;;5052009;28;20460;-56
2021/07/14 07:00:16;;;;;;;14.23;11.82;;;22.90;73.60;;;;;;5051075;28;20143;-54
2021/07/14 07:02:44;;;;;;;14.38;12.18;;;22.90;74.00;;;;;;5051722;28;20128;-46
2021/07/14 07:05:10;;;;;;;33.05;13.70;;;22.90;75.00;;;;;;5053050;28;20048;-42
2021/07/14 07:07:36;;;;;;;18.65;13.02;;;22.90;75.90;;;;;;5051560;28;20037;-45
2021/07/14 07:10:04;;;;;;;13.98;12.25;;;22.90;76.30;;;;;;5052427;28;20072;-47
2021/07/14 07:12:30;;;;;;;16.48;12.25;;;23.10;76.60;;;;;;5052677;28;20498;-51
2021/07/14 07:14:56;;;;;;;14.68;11.82;;;23.10;76.80;;;;;;5051211;28;20084;-53
2021/07/14 07:17:22;;;;;;;31.85;14.48;;;23.20;76.90;;;;;;5052023;28;20049;-50
2021/07/14 07:19:47;;;;;;;16.63;12.68;;;23.20;77.00;;;;;;5052551;28;20041;-52
2021/07/14 07:22:13;;;;;;;18.23;12.02;;;23.10;76.80;;;;;;5051962;28;20136;-52
2021/07/14 07:24:39;;;;;;;16.05;11.98;;;23.00;77.10;;;;;;5052731;28;20488;-53
2021/07/14 07:27:08;;;;;;;20.92;12.88;;;23.00;77.50;;;;;;5052100;28;20102;-50
2021/07/14 07:29:37;;;;;;;193.95;27.48;;;23.10;77.80;;;;;;5050561;28;20048;-43
2021/07/14 07:32:04;;;;;;;33.75;13.63;;;23.30;77.60;;;;;;5052507;28;20056;-48
2021/07/14 07:34:30;;;;;;;39.53;14.38;;;23.40;77.40;;;;;;5052249;28;20491;-48
2021/07/14 07:36:55;;;;;;;16.75;12.02;;;23.50;77.10;;;;;;5051357;28;20069;-52
2021/07/14 07:39:21;;;;;;;44.17;14.32;;;23.70;76.70;;;;;;5051779;28;20045;-49
2021/07/14 07:41:48;;;;;;;29.52;13.60;;;23.70;76.50;;;;;;5051832;28;20052;-52
2021/07/14 07:44:14;;;;;;;36.22;13.52;;;23.70;76.30;;;;;;5050326;28;20489;-51
2021/07/14 07:46:41;;;;;;;34.38;13.18;;;23.70;76.20;;;;;;5051212;28;20140;-43
2021/07/14 07:49:07;;;;;;;27.48;12.77;;;23.60;76.00;;;;;;5050909;28;20538;-54
2021/07/14 07:51:34;;;;;;;23.33;11.10;;;23.60;75.90;;;;;;5051269;28;20041;-61
2021/07/14 07:54:03;;;;;;;31.17;11.32;;;23.60;75.80;;;;;;5051594;28;20045;-51
2021/07/14 07:56:31;;;;;;;27.27;11.52;;;23.60;75.80;;;;;;5051381;28;20386;-59
2021/07/14 07:59:03;;;;;;;19.70;10.80;;;23.60;75.70;;;;;;5051038;28;20049;-60
2021/07/14 08:01:29;;;;;;;14.90;9.95;;;23.50;75.60;;;;;;5050381;28;20497;-48
2021/07/14 08:03:55;;;;;;;12.88;10.00;;;23.50;75.50;;;;;;5052118;28;20133;-52
2021/07/14 08:06:21;;;;;;;12.77;9.70;;;23.50;75.50;;;;;;5051006;28;20087;-51
2021/07/14 08:08:47;;;;;;;19.08;9.77;;;23.40;75.50;;;;;;5051473;28;20041;-58
2021/07/14 08:11:12;;;;;;;16.45;9.90;;;23.40;75.50;;;;;;5051091;28;20044;-60
2021/07/14 08:13:38;;;;;;;14.60;8.80;;;23.40;75.50;;;;;;5051240;28;20045;-53
2021/07/14 08:16:04;;;;;;;18.33;10.07;;;23.40;75.50;;;;;;5050092;28;20049;-55
2021/07/14 08:18:30;;;;;;;13.68;8.90;;;23.40;75.50;;;;;;5051891;28;20057;-54
2021/07/14 08:20:57;;;;;;;17.40;8.88;;;23.40;75.50;;;;;;5050898;28;20055;-44
2021/07/14 08:23:24;;;;;;;15.15;8.82;;;23.40;75.50;;;;;;5050947;28;20049;-53
2021/07/14 08:25:51;;;;;;;13.15;8.57;;;23.40;75.50;;;;;;5051357;28;20052;-49
2021/07/14 08:28:18;;;;;;;12.65;9.20;;;23.30;75.40;;;;;;5050293;28;20049;-53
2021/07/14 08:30:44;;;;;;;15.55;8.35;;;23.30;75.40;;;;;;5050116;28;20044;-53
2021/07/14 08:33:10;;;;;;;15.25;8.13;;;23.30;75.40;;;;;;5051747;28;20041;-46
2021/07/14 08:35:36;;;;;;;11.65;7.45;;;23.30;75.40;;;;;;5051604;28;20037;-57
2021/07/14 08:38:02;;;;;;;15.98;8.77;;;23.30;75.50;;;;;;5050809;28;20084;-50
2021/07/14 08:40:28;;;;;;;13.13;8.05;;;23.20;75.30;;;;;;5050716;28;20091;-53
2021/07/14 08:42:58;;;;;;;13.35;7.07;;;23.30;75.40;;;;;;5051559;28;20045;-55
2021/07/14 08:45:24;;;;;;;12.80;7.82;;;23.30;75.40;;;;;;5051017;28;20045;-51
2021/07/14 08:47:50;;;;;;;11.85;7.90;;;23.30;75.40;;;;;;5051297;28;20068;-54
2021/07/14 08:50:19;;;;;;;9.07;7.05;;;23.20;75.30;;;;;;5050795;28;20456;-58
2021/07/14 08:52:48;;;;;;;12.43;7.60;;;23.20;75.30;;;;;;5050543;28;20059;-49
2021/07/14 08:55:18;;;;;;;10.45;7.30;;;23.20;75.30;;;;;;5053862;28;20041;-57
2021/07/14 08:57:44;;;;;;;11.10;7.25;;;23.20;75.30;;;;;;5055181;28;20041;-48
2021/07/14 09:00:14;;;;;;;10.63;7.10;;;23.20;75.30;;;;;;5053632;28;20073;-51
2021/07/14 09:02:41;;;;;;;16.23;7.32;;;23.20;75.30;;;;;;5054401;28;20127;-43
2021/07/14 09:05:09;;;;;;;9.48;6.90;;;23.20;75.30;;;;;;5054151;28;20128;-43
2021/07/14 09:07:39;;;;;;;12.15;7.18;;;23.20;75.20;;;;;;5053958;28;20501;-46
2021/07/14 09:10:10;;;;;;;9.40;6.38;;;23.20;75.20;;;;;;5055037;28;20045;-44
2021/07/14 09:12:45;;;;;;;11.15;7.20;;;23.20;75.20;;;;;;5053824;28;20048;-44
2021/07/14 09:15:13;;;;;;;7.13;6.40;;;23.20;75.20;;;;;;5054612;28;20122;-49
2021/07/14 09:17:51;;;;;;;8.05;6.65;;;23.20;75.20;;;;;;5054853;28;20505;-45
2021/07/14 09:20:21;;;;;;;8.63;6.22;;;23.20;75.20;;;;;;5053488;28;20482;-47
2021/07/14 09:22:59;;;;;;;9.77;6.72;;;23.20;75.20;;;;;;5051529;28;20494;-46
2021/07/14 09:25:25;;;;;;;9.90;6.13;;;23.20;75.20;;;;;;5052060;28;20066;-49
2021/07/14 09:27:55;;;;;;;8.20;6.13;;;23.20;75.20;;;;;;5052596;28;20394;-53
2021/07/14 09:30:23;;;;;;;15.77;6.82;;;23.20;75.20;;;;;;5053734;28;20044;-48
2021/07/14 09:32:58;;;;;;;9.20;6.13;;;23.20;75.10;;;;;;5054077;28;20052;-47
2021/07/14 09:35:31;;;;;;;6.70;6.00;;;23.20;75.10;;;;;;5053312;28;20051;-44
2021/07/14 09:38:01;;;;;;;8.02;5.93;;;23.20;75.10;;;;;;5053854;28;20089;-47
2021/07/14 09:40:28;;;;;;;7.68;5.40;;;23.20;75.10;;;;;;5054261;28;20140;-50
2021/07/14 09:43:07;;;;;;;6.97;5.88;;;23.20;75.10;;;;;;5053634;28;20067;-48
2021/07/14 09:45:57;;;;;;;7.20;6.10;;;23.20;75.10;;;;;;5053716;28;20482;-48
2021/07/14 09:48:29;;;;;;;7.10;5.97;;;23.20;75.10;;;;;;5011980;28;20054;-47
2021/07/14 09:50:59;;;;;;;8.30;5.72;;;23.20;75.10;;;;;;5011088;28;20061;-47
2021/07/14 09:53:28;;;;;;;8.65;6.50;;;23.20;75.10;;;;;;5011371;28;20479;-45
2021/07/14 09:56:16;;;;;;;8.05;5.22;;;23.20;75.10;;;;;;5010729;28;20053;-45
2021/07/14 09:58:43;;;;;;;8.63;5.93;;;23.20;75.10;;;;;;5009716;28;20422;-49
2021/07/14 10:01:15;;;;;;;6.75;5.53;;;23.20;75.10;;;;;;5023134;28;20041;-46
2021/07/14 10:03:50;;;;;;;7.07;5.80;;;23.20;75.10;;;;;;5020874;28;20077;-44
2021/07/14 10:06:17;;;;;;;5.88;5.20;;;23.20;75.00;;;;;;5010525;28;20573;-47
2021/07/14 10:08:47;;;;;;;7.57;4.90;;;23.20;75.00;;;;;;5011342;28;20052;-45
2021/07/14 10:11:21;;;;;;;8.63;6.40;;;23.10;74.90;;;;;;5011744;28;20518;-46
2021/07/14 10:13:59;;;;;;;11.65;5.53;;;23.20;75.00;;;;;;5010573;28;20104;-45
2021/07/14 10:16:31;;;;;;;7.68;5.43;;;23.20;75.00;;;;;;5011197;28;20052;-48
2021/07/14 10:19:13;;;;;;;6.00;5.40;;;23.20;75.00;;;;;;5010195;28;20053;-62
2021/07/14 10:21:41;;;;;;;7.75;5.25;;;23.20;75.00;;;;;;5010448;28;20569;-62
2021/07/14 10:24:10;;;;;;;5.90;5.30;;;23.20;75.00;;;;;;5011311;28;20583;-59
2021/07/14 10:26:40;;;;;;;7.70;5.68;;;23.20;75.00;;;;;;5052601;28;20033;-59
2021/07/14 10:29:06;;;;;;;6.10;5.05;;;23.20;74.90;;;;;;5052532;28;20448;-62
2021/07/14 10:31:34;;;;;;;6.57;5.75;;;23.20;74.90;;;;;;5053642;28;20049;-55
2021/07/14 10:34:02;;;;;;;6.88;5.20;;;23.20;74.90;;;;;;5052759;28;20410;-48
2021/07/14 10:36:30;;;;;;;6.10;4.82;;;23.20;74.90;;;;;;5050866;28;20061;-51
2021/07/14 10:39:00;;;;;;;7.15;5.22;;;23.20;74.90;;;;;;5053057;28;20049;-48
2021/07/14 10:41:28;;;;;;;6.00;4.90;;;23.20;74.90;;;;;;5053183;28;20072;-55
2021/07/14 10:43:55;;;;;;;6.47;4.97;;;23.20;74.90;;;;;;5052055;28;20049;-45
2021/07/14 10:46:23;;;;;;;5.30;4.65;;;23.20;74.90;;;;;;5053027;28;20537;-48
2021/07/14 10:48:52;;;;;;;6.10;4.70;;;23.20;74.80;;;;;;5052702;28;20132;-48
2021/07/14 10:51:18;;;;;;;6.32;4.80;;;23.20;74.90;;;;;;5032279;28;20050;-46
2021/07/14 10:53:46;;;;;;;7.10;5.47;;;23.20;74.80;;;;;;5032591;28;20470;-53
2021/07/14 10:56:15;;;;;;;6.43;4.60;;;23.20;74.80;;;;;;5048272;28;20045;-53
2021/07/14 10:58:42;;;;;;;6.20;5.03;;;23.20;74.80;;;;;;5052239;28;20444;-50
2021/07/14 11:01:09;;;;;;;5.03;4.57;;;23.20;74.80;;;;;;5050756;28;20060;-48
2021/07/14 11:03:38;;;;;;;5.20;4.60;;;23.20;74.80;;;;;;5049019;28;20098;-46
2021/07/14 11:06:05;;;;;;;5.28;4.43;;;23.20;74.80;;;;;;5048086;28;20509;-54
2021/07/14 11:08:47;;;;;;;5.55;4.47;;;23.20;74.70;;;;;;5048584;28;20443;-49
2021/07/14 11:11:21;;;;;;;5.10;4.60;;;23.20;74.70;;;;;;5048621;28;20493;-46
2021/07/14 11:13:50;;;;;;;6.82;4.80;;;23.20;74.80;;;;;;5052472;28;20095;-56
2021/07/14 11:16:28;;;;;;;4.88;4.47;;;23.20;74.70;;;;;;5051090;28;20099;-54
2021/07/14 11:19:12;;;;;;;6.15;4.90;;;23.20;74.70;;;;;;5052166;28;20091;-56
2021/07/14 11:21:51;;;;;;;5.30;4.80;;;23.20;74.70;;;;;;5052253;28;20503;-52
2021/07/14 11:24:53;;;;;;;5.85;4.93;;;23.20;74.70;;;;;;5051546;28;20047;-48
2021/07/14 11:27:22;;;;;;;5.20;4.68;;;23.20;74.70;;;;;;5051304;28;20119;-53
2021/07/14 11:29:50;;;;;;;4.72;4.30;;;23.20;74.70;;;;;;5051936;28;20105;-55
2021/07/14 11:32:38;;;;;;;5.32;4.47;;;23.20;74.70;;;;;;5051792;28;20056;-49
2021/07/14 11:35:32;;;;;;;5.20;4.25;;;23.20;74.60;;;;;;5047691;28;20440;-54
2021/07/14 11:38:03;;;;;;;5.10;4.60;;;23.20;74.60;;;;;;5051703;28;20149;-48
2021/07/14 11:40:40;;;;;;;4.93;4.43;;;23.20;74.70;;;;;;5051381;28;20374;-52
2021/07/14 11:43:14;;;;;;;5.70;4.53;;;23.20;74.70;;;;;;5051138;28;20053;-45
2021/07/14 11:45:45;;;;;;;5.22;4.35;;;23.20;74.60;;;;;;5051373;28;20082;-56
2021/07/14 11:48:26;;;;;;;4.55;4.10;;;23.20;74.70;;;;;;5052026;28;20079;-54
2021/07/14 11:50:58;;;;;;;4.65;4.25;;;23.20;74.60;;;;;;5051979;28;20087;-46
2021/07/14 11:53:30;;;;;;;5.30;4.28;;;23.20;74.60;;;;;;5051396;28;20049;-46
2021/07/14 11:56:11;;;;;;;4.70;4.22;;;23.20;74.60;;;;;;5050644;28;20155;-47
2021/07/14 11:58:46;;;;;;;4.90;4.50;;;23.20;74.60;;;;;;5050553;28;20133;-46
2021/07/14 12:01:17;;;;;;;5.18;4.15;;;23.20;74.60;;;;;;5051248;28;20044;-50
2021/07/14 12:04:01;;;;;;;4.30;3.90;;;23.20;74.60;;;;;;5049982;28;20468;-47
2021/07/14 12:06:42;;;;;;;4.50;4.03;;;23.20;74.50;;;;;;5051858;28;20049;-51
2021/07/14 12:09:14;;;;;;;4.45;4.05;;;23.20;74.50;;;;;;5051354;28;20057;-52
2021/07/14 12:11:50;;;;;;;5.07;4.03;;;23.20;74.50;;;;;;5051339;28;20051;-51
2021/07/14 12:14:17;;;;;;;4.63;3.78;;;23.20;74.50;;;;;;5051611;28;20659;-49
2021/07/14 12:16:55;;;;;;;4.55;4.15;;;23.20;74.50;;;;;;5051750;28;20055;-45
2021/07/14 12:19:28;;;;;;;5.10;4.28;;;23.30;74.60;;;;;;5051692;28;20052;-49
2021/07/14 12:21:55;;;;;;;4.43;4.03;;;23.20;74.50;;;;;;5051892;28;20052;-47
2021/07/14 12:24:33;;;;;;;4.55;4.10;;;23.30;74.60;;;;;;5051355;28;20049;-49
2021/07/14 12:27:12;;;;;;;4.50;4.10;;;23.30;74.50;;;;;;5051537;28;20120;-45
2021/07/14 12:29:40;;;;;;;4.03;3.70;;;23.30;74.50;;;;;;5055384;28;20048;-47
2021/07/14 12:32:06;;;;;;;3.90;3.60;;;23.30;74.50;;;;;;5055687;28;20049;-46
2021/07/14 12:34:34;;;;;;;4.20;3.90;;;23.30;74.50;;;;;;5055100;28;20513;-47
2021/07/14 12:37:02;;;;;;;4.43;4.05;;;23.30;74.50;;;;;;5055235;28;20053;-48
2021/07/14 12:39:30;;;;;;;4.10;3.58;;;23.30;74.50;;;;;;5053565;28;20045;-47
2021/07/14 12:41:58;;;;;;;4.72;4.32;;;23.30;74.40;;;;;;5051455;28;20516;-50
2021/07/14 12:44:24;;;;;;;4.22;3.83;;;23.30;74.40;;;;;;5050957;28;20060;-48
2021/07/14 12:46:51;;;;;;;4.35;3.40;;;23.30;74.40;;;;;;5051968;28;20486;-46
2021/07/14 12:49:20;;;;;;;4.20;3.80;;;23.30;74.40;;;;;;5051540;28;20049;-48
2021/07/14 12:52:05;;;;;;;3.42;3.13;;;23.30;74.40;;;;;;5051681;28;20049;-47
2021/07/14 12:54:31;;;;;;;4.07;3.65;;;23.30;74.40;;;;;;5051329;28;20048;-49
2021/07/14 12:57:14;;;;;;;3.90;3.50;;;23.30;74.40;;;;;;5051421;28;20106;-47
2021/07/14 12:59:59;;;;;;;3.70;3.40;;;23.30;74.30;;;;;;5049913;28;20045;-48